Time;durP1;ratioP1;P1;durP2;ratioP2;P2;SDS_P1;SDS_P2;PMS_P1;PMS_P2;Temp;Humidity;BMP_temperature;BMP_pressure;BME280_temperature;BME280_humidity;BME280_pressure;Samples;Min_cycle;Max_cycle;Signal;HPM_P1;HPM_P2
2023/04/03 00:00:58;;;;;;;9.37;5.27;;;1.40;99.90;;;;;;4460414;28;655845;-69
2023/04/03 00:03:47;;;;;;;7.47;5.00;;;1.40;99.90;;;;;;4438770;28;655808;-69
2023/04/03 00:06:34;;;;;;;7.77;5.33;;;1.40;99.90;;;;;;4457942;28;655942;-69
2023/04/03 00:09:22;;;;;;;8.80;6.20;;;1.40;99.90;;;;;;4431174;28;656133;-69
2023/04/03 00:12:10;;;;;;;11.57;6.43;;;1.30;99.90;;;;;;4449101;28;655735;-69
2023/04/03 00:14:57;;;;;;;9.57;6.10;;;1.30;99.90;;;;;;4431746;28;657333;-68
2023/04/03 00:17:45;;;;;;;9.17;5.40;;;1.40;99.90;;;;;;4448520;28;655287;-69
2023/04/03 00:20:34;;;;;;;8.40;5.40;;;1.40;99.90;;;;;;4448230;28;654823;-69
2023/04/03 00:23:23;;;;;;;8.73;5.07;;;1.40;99.90;;;;;;4439991;28;655894;-69
2023/04/03 00:26:10;;;;;;;6.70;4.63;;;1.40;99.90;;;;;;4437126;28;655524;-69
2023/04/03 00:28:57;;;;;;;9.47;4.87;;;1.30;99.90;;;;;;4462463;28;656168;-69
2023/04/03 00:31:45;;;;;;;8.50;5.23;;;1.30;99.90;;;;;;4460707;28;655318;-69
2023/04/03 00:34:32;;;;;;;7.30;4.30;;;1.30;99.90;;;;;;4420578;28;657732;-69
2023/04/03 00:37:21;;;;;;;6.57;4.20;;;1.30;99.90;;;;;;4453536;28;655560;-69
2023/04/03 00:40:09;;;;;;;8.13;4.13;;;1.30;99.90;;;;;;4429789;28;656865;-69
2023/04/03 00:42:57;;;;;;;6.07;4.20;;;1.30;99.90;;;;;;4442211;28;655669;-69
2023/04/03 00:45:45;;;;;;;6.73;4.37;;;1.30;99.90;;;;;;4447992;28;655589;-69
2023/04/03 00:48:33;;;;;;;5.97;3.90;;;1.30;99.90;;;;;;4426204;28;657162;-69
2023/04/03 00:51:22;;;;;;;5.23;3.80;;;1.30;99.90;;;;;;4436328;28;656201;-69
2023/04/03 00:54:10;;;;;;;6.23;3.93;;;1.20;99.90;;;;;;4448644;28;655992;-68
2023/04/03 00:56:58;;;;;;;6.50;3.83;;;1.20;99.90;;;;;;4425725;28;656737;-69
2023/04/03 00:59:46;;;;;;;7.90;4.00;;;1.30;99.90;;;;;;4450719;28;655612;-69
2023/04/03 01:02:33;;;;;;;5.80;3.70;;;1.20;99.90;;;;;;4459252;28;656242;-68
2023/04/03 01:05:21;;;;;;;5.57;3.43;;;1.20;99.90;;;;;;4435333;28;656438;-69
2023/04/03 01:08:09;;;;;;;4.60;3.00;;;1.10;99.90;;;;;;4464035;28;657041;-68
2023/04/03 01:10:58;;;;;;;6.32;3.83;;;1.10;99.90;;;;;;4440061;28;655553;-69
2023/04/03 01:13:45;;;;;;;7.60;3.87;;;1.10;99.90;;;;;;4432428;28;655855;-69
2023/04/03 01:16:33;;;;;;;4.73;3.40;;;1.10;99.90;;;;;;4454908;28;657166;-69
2023/04/03 01:19:20;;;;;;;6.37;3.23;;;1.10;99.90;;;;;;4446295;28;656856;-69
2023/04/03 01:22:15;;;;;;;4.90;3.00;;;1.10;99.90;;;;;;4462732;28;655426;-69
2023/04/03 01:25:02;;;;;;;4.70;3.50;;;1.10;99.90;;;;;;4402959;28;657132;-69
2023/04/03 01:27:52;;;;;;;5.63;3.23;;;1.00;99.90;;;;;;4460565;28;656198;-69
2023/04/03 01:30:42;;;;;;;6.00;3.57;;;1.00;99.90;;;;;;4451387;28;655348;-69
2023/04/03 01:33:30;;;;;;;6.13;3.60;;;1.00;99.90;;;;;;4428736;28;655950;-68
2023/04/03 01:36:19;;;;;;;5.50;3.63;;;1.00;99.90;;;;;;4432401;28;656305;-68
2023/04/03 01:39:06;;;;;;;5.27;3.50;;;1.00;99.90;;;;;;4433056;28;655687;-69
2023/04/03 01:41:53;;;;;;;4.73;3.30;;;1.00;99.90;;;;;;4453918;28;657260;-69
2023/04/03 01:44:40;;;;;;;6.20;3.97;;;1.00;99.90;;;;;;4430530;28;655729;-69
2023/04/03 01:47:28;;;;;;;6.13;3.80;;;1.00;99.90;;;;;;4448093;28;656948;-69
2023/04/03 01:50:17;;;;;;;5.67;3.80;;;1.00;99.90;;;;;;4436747;28;655732;-69
2023/04/03 01:53:04;;;;;;;4.53;3.23;;;1.00;99.90;;;;;;4453089;28;656672;-69
2023/04/03 01:55:51;;;;;;;4.82;3.13;;;1.00;99.90;;;;;;4433710;28;655410;-69
2023/04/03 01:58:39;;;;;;;8.93;4.20;;;0.90;99.90;;;;;;4451744;28;655795;-69
2023/04/03 02:01:26;;;;;;;7.80;3.83;;;0.90;99.90;;;;;;4430859;28;655960;-69
2023/04/03 02:04:14;;;;;;;5.80;4.00;;;0.90;99.90;;;;;;4460221;28;655224;-69
2023/04/03 02:07:02;;;;;;;7.30;4.47;;;0.90;99.90;;;;;;4435194;28;656048;-69
2023/04/03 02:09:50;;;;;;;7.17;4.80;;;0.90;99.90;;;;;;4450400;28;656266;-69
2023/04/03 02:12:38;;;;;;;7.37;4.87;;;0.90;99.90;;;;;;4449395;28;656931;-69
2023/04/03 02:15:25;;;;;;;9.47;5.63;;;0.90;99.90;;;;;;4440470;28;655792;-68
2023/04/03 02:18:13;;;;;;;7.90;5.23;;;0.90;99.90;;;;;;4457567;28;657979;-68
2023/04/03 02:21:00;;;;;;;7.40;4.60;;;0.90;99.90;;;;;;4448888;28;656285;-69
2023/04/03 02:23:49;;;;;;;9.20;5.03;;;0.90;99.90;;;;;;4449664;28;657010;-69
2023/04/03 02:26:36;;;;;;;7.77;4.70;;;0.90;99.90;;;;;;4444898;28;655537;-69
2023/04/03 02:29:23;;;;;;;10.73;5.23;;;0.90;99.90;;;;;;4459715;28;656651;-68
2023/04/03 02:32:10;;;;;;;8.47;5.57;;;0.90;99.90;;;;;;4433997;28;656612;-69
2023/04/03 02:34:58;;;;;;;9.77;5.57;;;0.90;99.90;;;;;;4458225;28;655888;-68
2023/04/03 02:37:45;;;;;;;8.05;5.38;;;0.90;99.90;;;;;;4438806;28;655753;-69
2023/04/03 02:40:34;;;;;;;10.23;5.10;;;0.80;99.90;;;;;;4442966;28;657086;-69
2023/04/03 02:43:21;;;;;;;8.40;5.10;;;0.80;99.90;;;;;;4429043;28;657604;-69
2023/04/03 02:46:08;;;;;;;5.97;4.40;;;0.80;99.90;;;;;;4455888;28;655253;-68
2023/04/03 02:48:56;;;;;;;8.27;4.97;;;0.80;99.90;;;;;;4431974;28;655404;-69
2023/04/03 02:51:43;;;;;;;8.47;5.23;;;0.70;99.90;;;;;;4456913;28;655960;-68
2023/04/03 02:54:30;;;;;;;8.53;5.03;;;0.70;99.90;;;;;;4438224;28;655522;-69
2023/04/03 02:57:19;;;;;;;6.10;4.00;;;0.70;99.90;;;;;;4457410;28;656847;-68
2023/04/03 03:00:08;;;;;;;7.00;4.40;;;0.70;99.90;;;;;;4427624;28;655403;-69
2023/04/03 03:02:55;;;;;;;7.90;4.60;;;0.60;99.90;;;;;;4427521;28;655640;-69
2023/04/03 03:05:43;;;;;;;7.87;5.07;;;0.70;99.90;;;;;;4440524;28;657104;-69
2023/04/03 03:08:30;;;;;;;9.70;5.33;;;0.70;99.90;;;;;;4446203;28;655705;-69
2023/04/03 03:11:17;;;;;;;9.53;5.27;;;0.60;99.90;;;;;;4456827;28;656969;-69
2023/04/03 03:14:07;;;;;;;8.73;5.43;;;0.60;99.90;;;;;;4460617;28;655398;-69
2023/04/03 03:16:54;;;;;;;8.57;5.20;;;0.60;99.90;;;;;;4458489;28;656036;-69
2023/04/03 03:19:41;;;;;;;11.50;6.05;;;0.60;99.90;;;;;;4443224;28;656223;-69
2023/04/03 03:22:28;;;;;;;8.40;5.00;;;0.60;99.90;;;;;;4446349;28;657632;-68
2023/04/03 03:25:16;;;;;;;10.20;5.07;;;0.50;99.90;;;;;;4433360;28;655296;-69
2023/04/03 03:28:03;;;;;;;8.53;5.13;;;0.60;99.90;;;;;;4461987;28;656498;-68
2023/04/03 03:30:52;;;;;;;8.50;4.40;;;0.60;99.90;;;;;;4423886;28;655282;-69
2023/04/03 03:33:39;;;;;;;7.10;5.13;;;0.60;99.90;;;;;;4460134;28;655481;-68
2023/04/03 03:36:26;;;;;;;7.43;4.37;;;0.50;99.90;;;;;;4437222;28;655335;-69
2023/04/03 03:39:13;;;;;;;6.53;3.87;;;0.50;99.90;;;;;;4460889;28;657596;-68
2023/04/03 03:42:01;;;;;;;7.23;4.50;;;0.50;99.90;;;;;;4436134;28;655420;-69
2023/04/03 03:44:48;;;;;;;7.37;3.67;;;0.40;99.90;;;;;;4448238;28;656396;-69
2023/04/03 03:47:37;;;;;;;8.67;4.97;;;0.30;99.90;;;;;;4431453;28;655610;-69
2023/04/03 03:50:24;;;;;;;6.13;4.03;;;0.20;99.90;;;;;;4461291;28;655466;-68
2023/04/03 03:53:11;;;;;;;7.10;4.55;;;0.20;99.90;;;;;;4442881;28;655043;-69
2023/04/03 03:55:58;;;;;;;6.50;4.43;;;0.20;99.90;;;;;;4463160;28;657274;-69
2023/04/03 03:58:46;;;;;;;7.07;4.77;;;0.20;99.90;;;;;;4421623;28;656153;-69
2023/04/03 04:01:33;;;;;;;6.33;4.50;;;0.20;99.90;;;;;;4454485;28;655926;-69
2023/04/03 04:04:22;;;;;;;8.27;5.40;;;0.20;99.90;;;;;;4428786;28;655915;-69
2023/04/03 04:07:09;;;;;;;6.57;4.67;;;0.10;99.90;;;;;;4441862;28;655976;-69
2023/04/03 04:09:56;;;;;;;7.13;4.43;;;0.10;99.90;;;;;;4435622;28;655574;-69
2023/04/03 04:12:43;;;;;;;7.10;4.40;;;0.10;99.90;;;;;;4461814;28;656882;-69
2023/04/03 04:15:31;;;;;;;7.70;4.50;;;0.10;99.90;;;;;;4437220;28;655267;-69
2023/04/03 04:18:19;;;;;;;6.60;3.70;;;0.10;99.90;;;;;;4465743;28;655560;-69
2023/04/03 04:21:08;;;;;;;6.40;4.20;;;0.10;99.90;;;;;;4445092;28;656526;-69
2023/04/03 04:23:55;;;;;;;5.10;3.70;;;0.10;99.90;;;;;;4425223;28;655380;-69
2023/04/03 04:26:43;;;;;;;5.33;4.10;;;0.10;99.90;;;;;;4450679;28;658514;-69
2023/04/03 04:29:35;;;;;;;8.70;4.20;;;0.10;99.90;;;;;;4446925;28;655398;-69
2023/04/03 04:32:22;;;;;;;4.63;3.07;;;0.10;99.90;;;;;;4430975;28;656153;-69
2023/04/03 04:35:09;;;;;;;7.07;3.97;;;0.20;99.90;;;;;;4450764;28;656805;-69
2023/04/03 04:37:58;;;;;;;6.53;3.83;;;0.10;99.90;;;;;;4418918;28;655267;-68
2023/04/03 04:40:45;;;;;;;3.57;2.63;;;0.10;99.90;;;;;;4433271;28;655674;-69
2023/04/03 04:43:32;;;;;;;5.77;3.23;;;0.00;99.90;;;;;;4458025;28;656496;-68
2023/04/03 04:46:20;;;;;;;9.77;4.40;;;0.00;99.90;;;;;;4458548;28;657076;-69
2023/04/03 04:49:07;;;;;;;12.07;3.50;;;-0.10;99.90;;;;;;4457395;28;656186;-69
2023/04/03 04:51:55;;;;;;;8.57;3.80;;;-0.10;99.90;;;;;;4454564;28;657202;-69
2023/04/03 04:54:44;;;;;;;11.47;3.87;;;-0.10;99.90;;;;;;4463582;28;657068;-69
2023/04/03 04:57:31;;;;;;;20.47;6.20;;;-0.10;99.90;;;;;;4428254;28;658367;-69
2023/04/03 05:00:19;;;;;;;15.23;5.75;;;-0.10;99.90;;;;;;4458153;28;659519;-69
2023/04/03 05:03:06;;;;;;;23.97;8.90;;;-0.10;99.90;;;;;;4434877;28;657811;-69
2023/04/03 05:05:54;;;;;;;17.67;7.40;;;-0.10;99.90;;;;;;4446936;28;658422;-69
2023/04/03 05:08:41;;;;;;;12.10;5.90;;;-0.10;99.90;;;;;;4432746;28;657759;-68
2023/04/03 05:11:30;;;;;;;10.83;4.33;;;-0.10;99.90;;;;;;4451724;28;658548;-68
2023/04/03 05:14:17;;;;;;;11.67;6.13;;;-0.20;99.90;;;;;;4430029;28;659024;-68
2023/04/03 05:17:04;;;;;;;13.50;5.72;;;-0.20;99.90;;;;;;4443602;28;658527;-70
2023/04/03 05:19:51;;;;;;;12.30;5.03;;;-0.20;99.90;;;;;;4429297;28;657450;-70
2023/04/03 05:22:39;;;;;;;10.87;4.60;;;-0.30;99.90;;;;;;4459150;28;658130;-69
2023/04/03 05:25:26;;;;;;;11.53;5.57;;;-0.30;99.90;;;;;;4422499;28;657759;-69
2023/04/03 05:28:15;;;;;;;5.83;3.50;;;-0.30;99.90;;;;;;4451827;28;658381;-70
2023/04/03 05:31:02;;;;;;;6.67;3.97;;;-0.40;99.90;;;;;;4436971;28;656866;-70
2023/04/03 05:33:49;;;;;;;7.93;3.37;;;-0.40;99.90;;;;;;4446587;28;657129;-70
2023/04/03 05:36:37;;;;;;;5.60;2.80;;;-0.40;99.90;;;;;;4442034;28;656966;-69
2023/04/03 05:39:24;;;;;;;7.00;3.77;;;-0.40;99.90;;;;;;4456280;28;657927;-69
2023/04/03 05:42:12;;;;;;;7.40;3.67;;;-0.30;99.90;;;;;;4426022;28;657909;-69
2023/04/03 05:45:01;;;;;;;65.10;12.57;;;-0.30;99.90;;;;;;4441332;28;656928;-69
2023/04/03 05:47:48;;;;;;;25.77;6.10;;;-0.40;99.90;;;;;;4414520;28;659988;-69
2023/04/03 05:50:35;;;;;;;30.27;7.43;;;-0.40;99.90;;;;;;4444900;28;657784;-69
2023/04/03 05:53:23;;;;;;;24.20;8.57;;;-0.40;99.90;;;;;;4451364;28;658346;-69
2023/04/03 05:56:11;;;;;;;7.87;3.40;;;-0.40;99.90;;;;;;4423368;28;657527;-69
2023/04/03 05:58:58;;;;;;;8.60;2.70;;;-0.40;99.90;;;;;;4455769;28;656759;-69
2023/04/03 06:01:47;;;;;;;11.77;3.43;;;-0.40;99.90;;;;;;4440608;28;656487;-69
2023/04/03 06:04:34;;;;;;;9.37;3.63;;;-0.40;99.90;;;;;;4458785;28;657958;-69
2023/04/03 06:07:22;;;;;;;9.67;3.23;;;-0.40;99.90;;;;;;4430437;28;656866;-70
2023/04/03 06:10:11;;;;;;;27.67;8.40;;;-0.30;99.90;;;;;;4441477;28;656691;-69
2023/04/03 06:12:58;;;;;;;51.47;14.50;;;-0.20;99.90;;;;;;4416968;28;659331;-70
2023/04/03 06:15:46;;;;;;;44.33;11.07;;;-0.10;99.90;;;;;;4427401;28;658409;-70
2023/04/03 06:18:35;;;;;;;10.07;3.73;;;0.00;99.90;;;;;;4457215;28;659981;-69
2023/04/03 06:21:22;;;;;;;26.97;7.17;;;0.10;99.90;;;;;;4417915;28;658857;-69
2023/04/03 06:24:10;;;;;;;14.30;3.87;;;0.30;99.90;;;;;;4455094;28;656398;-69
2023/04/03 06:26:57;;;;;;;12.30;4.33;;;0.40;99.90;;;;;;4428778;28;657765;-70
2023/04/03 06:29:45;;;;;;;8.77;3.65;;;0.40;99.90;;;;;;4445871;28;656897;-69
2023/04/03 06:32:32;;;;;;;7.17;3.03;;;0.60;99.90;;;;;;4425845;28;657106;-69
2023/04/03 06:35:23;;;;;;;12.05;5.10;;;0.50;99.90;;;;;;4450289;28;656545;-69
2023/04/03 06:38:11;;;;;;;13.30;4.80;;;0.60;99.90;;;;;;4429200;28;656662;-69
2023/04/03 06:40:58;;;;;;;10.40;3.27;;;0.60;99.90;;;;;;4459363;28;656906;-70
2023/04/03 06:43:45;;;;;;;7.65;2.88;;;0.60;99.90;;;;;;4435445;28;656941;-69
2023/04/03 06:46:32;;;;;;;5.20;2.60;;;0.60;99.90;;;;;;4456700;28;657110;-69
2023/04/03 06:49:21;;;;;;;8.37;2.97;;;0.70;99.90;;;;;;4448579;28;656994;-69
2023/04/03 06:52:11;;;;;;;6.57;3.07;;;0.90;99.90;;;;;;4456288;28;656334;-69
2023/04/03 06:55:00;;;;;;;10.27;3.30;;;0.90;99.90;;;;;;4430274;28;656321;-69
2023/04/03 06:57:47;;;;;;;6.63;2.33;;;0.80;99.90;;;;;;4434558;28;657711;-69
2023/04/03 07:00:34;;;;;;;6.97;2.43;;;0.80;99.90;;;;;;4454557;28;655374;-69
2023/04/03 07:03:21;;;;;;;13.43;3.50;;;0.80;99.90;;;;;;4418204;28;654943;-69
2023/04/03 07:06:10;;;;;;;13.47;4.70;;;0.70;99.90;;;;;;4444169;28;656617;-68
2023/04/03 07:08:58;;;;;;;7.00;2.50;;;0.90;99.90;;;;;;4426765;28;658531;-70
2023/04/03 07:11:46;;;;;;;5.73;2.50;;;0.90;99.90;;;;;;4425167;28;656257;-69
2023/04/03 07:14:33;;;;;;;11.10;3.70;;;1.10;99.90;;;;;;4445258;28;655551;-69
2023/04/03 07:17:20;;;;;;;5.83;2.67;;;1.40;99.90;;;;;;4430976;28;658090;-69
2023/04/03 07:20:09;;;;;;;9.93;3.00;;;1.50;99.90;;;;;;4440520;28;657336;-69
2023/04/03 07:22:56;;;;;;;10.50;3.57;;;1.50;99.90;;;;;;4432688;28;655856;-69
2023/04/03 07:25:45;;;;;;;5.05;2.50;;;1.30;99.90;;;;;;4460032;28;657516;-70
2023/04/03 07:28:32;;;;;;;5.65;2.45;;;1.30;99.90;;;;;;4435790;28;655592;-70
2023/04/03 07:31:20;;;;;;;7.57;2.60;;;1.40;99.90;;;;;;4441034;28;656696;-70
2023/04/03 07:34:07;;;;;;;8.23;2.80;;;1.60;99.90;;;;;;4415861;28;656650;-69
2023/04/03 07:36:55;;;;;;;7.90;2.50;;;1.60;99.90;;;;;;4456629;28;656138;-72
2023/04/03 07:39:44;;;;;;;5.13;2.50;;;1.80;99.90;;;;;;4431745;28;656944;-72
2023/04/03 07:42:33;;;;;;;7.70;2.40;;;2.10;99.90;;;;;;4425841;28;655450;-72
2023/04/03 07:45:22;;;;;;;8.37;3.77;;;2.00;99.90;;;;;;4415715;28;655419;-72
2023/04/03 07:48:10;;;;;;;5.27;2.40;;;2.20;99.90;;;;;;4449491;28;656342;-72
2023/04/03 07:51:01;;;;;;;3.00;1.57;;;2.40;99.90;;;;;;4421948;28;656995;-72
2023/04/03 07:53:48;;;;;;;8.02;2.35;;;2.50;99.90;;;;;;4428503;28;657466;-72
2023/04/03 07:56:35;;;;;;;7.13;2.50;;;2.50;99.90;;;;;;4433260;28;655587;-72
2023/04/03 07:59:24;;;;;;;8.67;3.63;;;2.70;99.90;;;;;;4456354;28;656423;-72
2023/04/03 08:02:11;;;;;;;4.40;2.30;;;3.10;99.90;;;;;;4414417;28;655421;-72
2023/04/03 08:04:59;;;;;;;9.47;2.60;;;3.10;99.90;;;;;;4455369;28;656269;-72
2023/04/03 08:07:46;;;;;;;7.00;2.20;;;3.70;99.90;;;;;;4427262;28;655965;-71
2023/04/03 08:10:33;;;;;;;10.20;2.97;;;3.90;99.90;;;;;;4447076;28;656247;-71
2023/04/03 08:13:23;;;;;;;5.80;2.10;;;4.90;99.90;;;;;;4421416;28;656648;-71
2023/04/03 08:16:13;;;;;;;4.93;1.70;;;5.10;99.90;;;;;;4426306;28;656270;-70
2023/04/03 08:19:00;;;;;;;5.85;1.88;;;5.00;99.90;;;;;;4440697;28;655635;-71
2023/04/03 08:21:47;;;;;;;4.63;1.80;;;4.80;99.90;;;;;;4456786;28;655333;-71
2023/04/03 08:24:35;;;;;;;6.00;1.80;;;4.70;99.90;;;;;;4452495;28;655381;-71
2023/04/03 08:27:22;;;;;;;3.30;1.67;;;4.30;99.90;;;;;;4460956;28;656431;-70
2023/04/03 08:30:11;;;;;;;5.70;2.10;;;4.00;99.90;;;;;;4447856;28;655710;-72
2023/04/03 08:33:01;;;;;;;4.20;1.87;;;4.20;99.90;;;;;;4452376;28;655174;-71
2023/04/03 08:35:48;;;;;;;6.03;2.17;;;4.90;99.90;;;;;;4416393;28;656064;-72
2023/04/03 08:38:36;;;;;;;9.43;2.90;;;5.20;99.90;;;;;;4432461;28;655931;-72
2023/04/03 08:41:30;;;;;;;5.67;1.80;;;5.50;99.90;;;;;;4447325;28;655444;-73
2023/04/03 08:44:22;;;;;;;6.97;2.83;;;5.10;99.90;;;;;;4406481;28;656106;-72
2023/04/03 08:47:14;;;;;;;3.47;1.73;;;4.80;99.90;;;;;;4426829;28;655706;-71
2023/04/03 08:50:03;;;;;;;5.17;2.00;;;4.40;99.90;;;;;;4425255;28;655542;-72
2023/04/03 08:52:52;;;;;;;6.53;1.70;;;4.30;99.90;;;;;;4415565;28;655455;-73
2023/04/03 08:55:41;;;;;;;6.27;2.10;;;4.20;99.90;;;;;;4446123;28;656057;-72
2023/04/03 08:58:29;;;;;;;7.10;2.10;;;3.80;99.90;;;;;;4435012;28;656273;-72
2023/04/03 09:01:19;;;;;;;22.10;5.83;;;3.90;99.90;;;;;;4432452;28;655923;-72
2023/04/03 09:04:13;;;;;;;95.43;14.90;;;3.90;99.90;;;;;;4435581;28;657080;-76
2023/04/03 09:07:04;;;;;;;37.93;6.97;;;3.60;99.90;;;;;;4422885;28;657746;-71
2023/04/03 09:09:52;;;;;;;9.27;3.10;;;3.90;99.90;;;;;;4433727;28;657324;-71
2023/04/03 09:12:42;;;;;;;3.97;1.93;;;4.30;99.90;;;;;;4449840;28;655605;-70
2023/04/03 09:15:30;;;;;;;6.15;2.00;;;4.20;99.90;;;;;;4448088;28;656569;-70
2023/04/03 09:18:20;;;;;;;4.53;2.17;;;4.60;99.90;;;;;;4432701;28;656876;-71
2023/04/03 09:21:13;;;;;;;7.33;2.10;;;4.10;99.90;;;;;;4429433;28;656578;-70
2023/04/03 09:24:03;;;;;;;4.03;1.97;;;4.80;99.90;;;;;;4429382;28;655731;-71
2023/04/03 09:26:53;;;;;;;5.00;2.10;;;5.30;99.90;;;;;;4431920;28;655467;-71
2023/04/03 09:29:43;;;;;;;5.90;2.30;;;5.70;99.90;;;;;;4442189;28;655689;-70
2023/04/03 09:32:31;;;;;;;3.88;1.58;;;5.50;99.90;;;;;;4427434;28;655381;-70
2023/04/03 09:35:21;;;;;;;3.77;1.90;;;5.20;99.90;;;;;;4458261;28;656721;-69
2023/04/03 09:38:20;;;;;;;5.73;2.53;;;5.00;99.90;;;;;;4436942;28;656458;-69
2023/04/03 09:41:14;;;;;;;3.97;1.90;;;5.00;99.90;;;;;;4414459;28;655903;-70
2023/04/03 09:44:01;;;;;;;5.97;1.90;;;4.70;99.90;;;;;;4428193;28;655739;-71
2023/04/03 09:46:48;;;;;;;4.37;2.03;;;4.90;99.90;;;;;;4448896;28;657211;-69
2023/04/03 09:49:35;;;;;;;6.87;2.07;;;5.20;99.90;;;;;;4423181;28;655570;-70
2023/04/03 09:52:24;;;;;;;4.83;2.27;;;5.40;99.90;;;;;;4460422;28;656693;-69
2023/04/03 09:55:16;;;;;;;4.80;2.67;;;5.40;99.90;;;;;;4441354;28;655345;-71
2023/04/03 09:58:08;;;;;;;8.97;2.50;;;5.70;99.90;;;;;;4440396;28;656170;-72
2023/04/03 10:00:56;;;;;;;6.07;2.10;;;6.40;99.90;;;;;;4436569;28;655719;-70
2023/04/03 10:03:46;;;;;;;13.20;4.00;;;5.80;99.90;;;;;;4444626;28;656772;-69
2023/04/03 10:06:35;;;;;;;6.33;2.07;;;5.70;99.90;;;;;;4438207;28;656753;-69
2023/04/03 10:09:23;;;;;;;3.73;2.10;;;5.50;99.90;;;;;;4430870;28;655543;-69
2023/04/03 10:12:12;;;;;;;4.70;2.30;;;5.20;99.90;;;;;;4442027;28;655900;-70
2023/04/03 10:15:01;;;;;;;4.63;2.13;;;4.80;99.90;;;;;;4450889;28;656249;-69
2023/04/03 10:17:53;;;;;;;7.15;1.98;;;4.70;99.90;;;;;;4427785;28;656531;-68
2023/04/03 10:20:41;;;;;;;8.83;3.90;;;4.40;99.90;;;;;;4404195;28;656410;-70
2023/04/03 10:23:30;;;;;;;5.73;2.27;;;4.30;99.90;;;;;;4457050;28;656273;-69
2023/04/03 10:26:23;;;;;;;4.63;2.10;;;4.40;99.90;;;;;;4432691;28;656132;-69
2023/04/03 10:29:14;;;;;;;4.60;2.40;;;4.60;99.90;;;;;;4407978;28;655983;-69
2023/04/03 10:32:11;;;;;;;5.90;2.27;;;4.80;99.90;;;;;;4422076;28;655228;-70
2023/04/03 10:35:01;;;;;;;5.87;1.80;;;5.40;99.90;;;;;;4428086;28;656153;-70
2023/04/03 10:37:56;;;;;;;5.27;2.10;;;6.10;99.90;;;;;;4430966;28;656083;-70
2023/04/03 10:40:48;;;;;;;5.43;2.10;;;6.40;99.90;;;;;;4430020;28;657212;-69
2023/04/03 10:43:39;;;;;;;5.43;2.50;;;6.90;99.90;;;;;;4443560;28;655404;-70
2023/04/03 10:46:29;;;;;;;6.03;2.23;;;6.70;99.90;;;;;;4425346;28;657406;-69
2023/04/03 10:49:27;;;;;;;5.37;2.07;;;7.10;99.90;;;;;;4425237;28;655347;-69
2023/04/03 10:52:18;;;;;;;3.90;2.10;;;7.20;99.90;;;;;;4423657;28;655456;-68
2023/04/03 10:55:11;;;;;;;4.47;1.93;;;7.40;99.90;;;;;;4410448;28;655293;-71
2023/04/03 10:57:58;;;;;;;5.47;2.37;;;6.80;99.90;;;;;;4413962;28;655731;-71
2023/04/03 11:00:47;;;;;;;7.03;2.20;;;6.60;99.90;;;;;;4420107;28;655513;-70
2023/04/03 11:03:37;;;;;;;5.17;2.30;;;6.60;99.90;;;;;;4447663;28;656118;-69
2023/04/03 11:06:26;;;;;;;8.27;2.00;;;6.30;99.90;;;;;;4425878;28;656559;-69
2023/04/03 11:09:20;;;;;;;5.03;1.90;;;5.80;99.90;;;;;;4423493;28;655285;-69
2023/04/03 11:12:10;;;;;;;5.47;2.40;;;5.90;99.90;;;;;;4409826;28;656408;-69
2023/04/03 11:14:58;;;;;;;4.93;2.17;;;6.00;99.90;;;;;;4428233;28;656476;-69
2023/04/03 11:17:50;;;;;;;3.47;1.83;;;6.40;99.90;;;;;;4440121;28;656308;-70
2023/04/03 11:20:39;;;;;;;7.40;2.10;;;5.80;99.90;;;;;;4437142;28;657451;-70
2023/04/03 11:23:29;;;;;;;4.13;2.13;;;6.10;99.90;;;;;;4431091;28;655609;-70
2023/04/03 11:26:17;;;;;;;4.00;1.80;;;6.60;99.90;;;;;;4438980;28;655510;-69
2023/04/03 11:29:07;;;;;;;5.57;2.67;;;6.70;99.90;;;;;;4460540;28;655517;-70
2023/04/03 11:32:10;;;;;;;6.47;2.77;;;6.50;99.90;;;;;;4459919;28;655733;-71
2023/04/03 11:34:59;;;;;;;7.73;2.00;;;7.00;99.90;;;;;;4408635;28;656665;-70
2023/04/03 11:37:47;;;;;;;9.20;4.47;;;7.40;99.90;;;;;;4437122;28;655936;-70
2023/04/03 11:40:36;;;;;;;5.87;1.70;;;8.00;99.90;;;;;;4437524;28;656075;-70
2023/04/03 11:43:26;;;;;;;5.43;1.92;;;8.10;99.90;;;;;;4430456;28;657464;-70
2023/04/03 11:46:13;;;;;;;5.57;1.90;;;7.70;93.10;;;;;;4438585;28;656487;-70
2023/04/03 11:49:00;;;;;;;3.77;1.73;;;7.10;95.00;;;;;;4436958;28;655457;-70
2023/04/03 11:51:48;;;;;;;4.07;1.57;;;6.80;95.30;;;;;;4442160;28;657280;-71
2023/04/03 11:54:51;;;;;;;5.70;1.73;;;5.60;94.10;;;;;;4443078;28;655915;-71
2023/04/03 11:58:03;;;;;;;6.07;2.17;;;5.50;99.90;;;;;;4429300;28;656007;-71
2023/04/03 12:01:12;;;;;;;4.97;2.37;;;5.50;99.90;;;;;;4416688;28;655750;-71
2023/04/03 12:04:08;;;;;;;8.97;4.87;;;5.80;99.90;;;;;;4429709;28;655776;-71
2023/04/03 12:07:15;;;;;;;8.00;3.50;;;6.60;99.90;;;;;;4411538;28;656125;-71
2023/04/03 12:10:02;;;;;;;8.00;4.13;;;7.30;98.30;;;;;;4413011;28;656173;-71
2023/04/03 12:13:03;;;;;;;4.07;1.90;;;7.40;94.50;;;;;;4449411;28;655951;-71
2023/04/03 12:15:54;;;;;;;4.37;1.80;;;7.80;92.10;;;;;;4408554;28;656421;-71
2023/04/03 12:18:43;;;;;;;7.40;3.80;;;7.60;90.60;;;;;;4435711;28;655451;-72
2023/04/03 12:22:07;;;;;;;4.17;2.13;;;7.60;90.60;;;;;;4437893;28;655747;-72
2023/04/03 12:24:54;;;;;;;4.40;1.98;;;7.10;92.50;;;;;;4435892;28;656014;-70
2023/04/03 12:27:42;;;;;;;4.37;1.70;;;7.30;90.30;;;;;;4431663;28;656492;-70
2023/04/03 12:30:31;;;;;;;3.10;1.77;;;7.80;91.80;;;;;;4442001;28;656741;-70
2023/04/03 12:33:29;;;;;;;6.00;2.63;;;8.00;87.10;;;;;;4434475;28;657162;-70
2023/04/03 12:36:19;;;;;;;3.83;2.17;;;8.70;91.90;;;;;;4438651;28;655521;-70
2023/04/03 12:39:12;;;;;;;5.20;2.63;;;8.90;85.30;;;;;;4442131;28;655273;-70
2023/04/03 12:42:03;;;;;;;3.30;1.50;;;9.20;85.10;;;;;;4424296;28;655335;-70
2023/04/03 12:44:55;;;;;;;4.33;1.70;;;8.90;74.70;;;;;;4406382;28;655606;-70
2023/04/03 12:47:43;;;;;;;5.57;2.07;;;8.40;75.30;;;;;;4434393;28;656345;-70
2023/04/03 12:50:32;;;;;;;6.27;2.33;;;8.00;77.20;;;;;;4443381;28;655148;-70
2023/04/03 12:53:20;;;;;;;4.27;1.50;;;7.50;80.50;;;;;;4446122;28;655972;-70
2023/04/03 12:56:22;;;;;;;5.73;2.60;;;7.60;78.30;;;;;;4428947;28;656007;-70
2023/04/03 12:59:16;;;;;;;2.60;1.70;;;7.30;73.00;;;;;;4424675;28;656692;-70
2023/04/03 13:02:07;;;;;;;45.13;15.50;;;7.30;74.70;;;;;;4431657;28;655879;-70
2023/04/03 13:04:57;;;;;;;3.50;2.20;;;7.40;76.80;;;;;;4438049;28;658313;-70
2023/04/03 13:07:44;;;;;;;3.90;1.77;;;7.30;77.80;;;;;;4427891;28;656189;-70
2023/04/03 13:10:32;;;;;;;22.50;6.63;;;7.40;79.70;;;;;;4432513;28;656984;-70
2023/04/03 13:13:19;;;;;;;6.27;2.17;;;7.30;79.90;;;;;;4460942;28;658350;-70
2023/04/03 13:16:10;;;;;;;3.70;1.40;;;6.50;79.20;;;;;;4440149;28;656281;-70
2023/04/03 13:18:57;;;;;;;8.77;3.80;;;6.50;79.10;;;;;;4441236;28;656070;-71
2023/04/03 13:21:46;;;;;;;3.33;1.77;;;7.30;85.50;;;;;;4443145;28;655839;-71
2023/04/03 13:24:36;;;;;;;5.07;2.00;;;8.40;80.60;;;;;;4425231;28;656458;-71
2023/04/03 13:27:23;;;;;;;3.77;1.80;;;8.90;74.70;;;;;;4438671;28;656193;-71
2023/04/03 13:30:24;;;;;;;12.87;6.30;;;9.10;70.90;;;;;;4448226;28;655747;-70
2023/04/03 13:33:21;;;;;;;3.93;2.10;;;8.50;63.50;;;;;;4406177;28;658565;-70
2023/04/03 13:36:10;;;;;;;5.00;2.10;;;8.10;70.00;;;;;;4438642;28;656117;-70
2023/04/03 13:39:04;;;;;;;14.63;4.25;;;7.60;69.10;;;;;;4434234;28;656764;-70
2023/04/03 13:41:52;;;;;;;37.20;11.43;;;7.20;71.80;;;;;;4408074;28;657163;-70
2023/04/03 13:44:40;;;;;;;14.50;5.93;;;6.90;72.70;;;;;;4457305;28;658667;-70
2023/04/03 13:47:28;;;;;;;8.80;4.05;;;6.30;73.20;;;;;;4440110;28;657150;-70
2023/04/03 13:50:17;;;;;;;6.87;2.90;;;6.10;77.80;;;;;;4455776;28;655138;-70
2023/04/03 13:53:10;;;;;;;5.03;2.30;;;5.90;76.80;;;;;;4453719;28;656072;-70
2023/04/03 13:56:06;;;;;;;3.37;1.67;;;5.90;82.40;;;;;;4405220;28;656580;-70
2023/04/03 13:59:00;;;;;;;2.93;1.80;;;6.50;79.80;;;;;;4434720;28;656077;-70
2023/04/03 14:01:49;;;;;;;3.67;1.70;;;7.50;80.50;;;;;;4407710;28;656323;-71
2023/04/03 14:04:47;;;;;;;3.80;1.90;;;8.00;74.40;;;;;;4436408;28;655939;-70
2023/04/03 14:07:35;;;;;;;4.10;1.57;;;8.80;69.00;;;;;;4431495;28;656137;-71
2023/04/03 14:10:22;;;;;;;3.47;1.67;;;9.20;65.80;;;;;;4433877;28;657215;-71
2023/04/03 14:13:12;;;;;;;4.20;2.27;;;8.80;60.40;;;;;;4461640;28;655931;-70
2023/04/03 14:16:00;;;;;;;5.67;3.03;;;9.10;62.60;;;;;;4433721;28;655230;-70
2023/04/03 14:18:47;;;;;;;7.80;3.03;;;8.40;63.20;;;;;;4426175;28;656636;-70
2023/04/03 14:21:35;;;;;;;6.13;2.30;;;7.80;67.70;;;;;;4452480;28;655350;-70
2023/04/03 14:24:23;;;;;;;3.67;1.80;;;7.20;65.60;;;;;;4462198;28;655633;-70
2023/04/03 14:27:16;;;;;;;8.47;3.87;;;6.60;64.50;;;;;;4440928;28;655748;-70
2023/04/03 14:30:05;;;;;;;14.93;5.53;;;6.20;69.20;;;;;;4439883;28;656423;-70
2023/04/03 14:32:53;;;;;;;3.53;2.00;;;6.60;70.20;;;;;;4432058;28;657374;-71
2023/04/03 14:35:40;;;;;;;5.83;2.20;;;7.10;66.30;;;;;;4445451;28;655826;-70